Time;durP1;ratioP1;P1;durP2;ratioP2;P2;SDS_P1;SDS_P2;PMS_P1;PMS_P2;Temp;Humidity;BMP_temperature;BMP_pressure;BME280_temperature;BME280_humidity;BME280_pressure;Samples;Min_cycle;Max_cycle;Signal;HPM_P1;HPM_P2
2022/01/19 09:05:42;;;;;;;20.73;11.68;;;5.20;94.40;;;;;;5069183;28;20388;-50
2022/01/19 09:08:09;;;;;;;24.60;10.77;;;5.20;94.60;;;;;;5046901;28;20045;-45
2022/01/19 09:10:37;;;;;;;21.60;10.80;;;5.20;94.50;;;;;;5047500;28;20037;-46
2022/01/19 09:13:04;;;;;;;18.98;10.05;;;5.20;94.40;;;;;;5049492;28;20033;-48
2022/01/19 09:15:31;;;;;;;22.30;10.60;;;5.30;94.30;;;;;;5049512;28;20044;-46
2022/01/19 09:17:58;;;;;;;18.02;10.18;;;5.40;94.20;;;;;;5049416;28;20503;-49
2022/01/19 09:20:24;;;;;;;18.40;10.10;;;5.50;94.00;;;;;;5048912;28;20052;-46
2022/01/19 09:22:51;;;;;;;17.85;9.57;;;5.60;93.80;;;;;;5049394;28;20044;-49
2022/01/19 09:25:18;;;;;;;18.33;9.80;;;5.60;94.00;;;;;;5049467;28;20072;-47
2022/01/19 09:27:45;;;;;;;16.95;9.35;;;5.70;93.40;;;;;;5051458;28;20045;-45
2022/01/19 09:30:14;;;;;;;19.33;10.38;;;5.80;93.40;;;;;;5048961;28;20037;-46
2022/01/19 09:32:41;;;;;;;19.35;9.32;;;5.80;93.40;;;;;;5049411;28;20120;-45
2022/01/19 09:35:09;;;;;;;14.95;9.02;;;5.80;93.20;;;;;;5049280;28;20041;-53
2022/01/19 09:37:36;;;;;;;15.20;8.68;;;5.90;93.20;;;;;;5051936;28;20049;-46
2022/01/19 09:40:23;;;;;;;20.92;9.02;;;6.00;93.20;;;;;;5049108;28;20041;-48
2022/01/19 09:42:50;;;;;;;13.35;8.52;;;6.10;93.00;;;;;;5048615;28;20037;-47
2022/01/19 09:45:17;;;;;;;17.73;9.13;;;6.20;92.80;;;;;;5047121;28;20056;-45
2022/01/19 09:47:43;;;;;;;15.88;8.43;;;6.30;92.80;;;;;;5048871;28;20041;-44
2022/01/19 09:50:10;;;;;;;18.33;9.35;;;6.30;92.70;;;;;;5047685;28;20057;-47
2022/01/19 09:52:37;;;;;;;16.58;9.02;;;6.40;92.70;;;;;;5047387;28;20052;-52
2022/01/19 09:55:04;;;;;;;14.45;8.50;;;6.50;92.30;;;;;;5048953;28;20492;-48
2022/01/19 09:57:31;;;;;;;16.48;8.15;;;6.60;92.20;;;;;;5053561;28;20041;-47
2022/01/19 09:59:58;;;;;;;16.17;8.65;;;6.70;92.40;;;;;;5050257;28;20190;-49
2022/01/19 10:02:24;;;;;;;18.65;8.05;;;6.80;92.50;;;;;;5049687;28;20068;-46
2022/01/19 10:04:55;;;;;;;16.92;8.18;;;6.90;92.20;;;;;;5048440;28;20053;-44
2022/01/19 10:07:22;;;;;;;14.00;7.50;;;6.90;91.90;;;;;;5048695;28;20037;-48
2022/01/19 10:09:49;;;;;;;12.88;7.75;;;6.90;91.80;;;;;;5048897;28;20044;-46
2022/01/19 10:17:48;;;;;;;18.27;8.00;;;6.90;92.40;;;;;;5035195;28;20065;-49
2022/01/19 10:20:15;;;;;;;17.65;7.47;;;7.00;92.60;;;;;;5035194;28;20409;-49
2022/01/19 10:22:42;;;;;;;17.27;7.95;;;7.00;92.30;;;;;;5034916;28;20045;-46
2022/01/19 10:25:08;;;;;;;14.32;7.28;;;7.10;91.80;;;;;;5034877;28;20046;-47
2022/01/19 10:27:35;;;;;;;14.55;7.43;;;7.10;91.70;;;;;;5036157;28;20424;-47
2022/01/19 10:30:02;;;;;;;10.77;7.28;;;7.10;91.70;;;;;;5034867;28;20041;-47
2022/01/19 10:32:30;;;;;;;14.50;6.97;;;7.10;91.80;;;;;;5034914;28;20116;-47
2022/01/19 10:35:02;;;;;;;12.52;6.63;;;7.10;91.90;;;;;;5033499;28;20092;-46
2022/01/19 10:37:28;;;;;;;15.65;6.70;;;7.10;91.90;;;;;;5034884;28;20045;-44
2022/01/19 10:39:57;;;;;;;15.15;6.22;;;7.10;91.80;;;;;;5035900;28;20041;-46
2022/01/19 10:42:25;;;;;;;12.30;7.53;;;7.10;91.80;;;;;;5033582;28;20052;-44
2022/01/19 10:44:52;;;;;;;12.38;6.90;;;7.10;91.70;;;;;;5034974;28;20500;-49
2022/01/19 10:47:34;;;;;;;15.10;7.18;;;7.00;91.90;;;;;;5034732;28;20212;-49
2022/01/19 10:50:01;;;;;;;11.77;6.53;;;7.00;92.10;;;;;;5034614;28;20052;-49
2022/01/19 10:52:28;;;;;;;12.93;6.82;;;7.00;92.40;;;;;;5034483;28;20112;-46
2022/01/19 10:54:57;;;;;;;15.80;6.85;;;7.00;92.30;;;;;;5034402;28;20452;-45
2022/01/19 10:57:24;;;;;;;13.68;7.78;;;7.00;92.30;;;;;;5031332;28;20053;-45
2022/01/19 10:59:58;;;;;;;15.02;7.45;;;7.00;92.30;;;;;;5028926;28;20401;-45
2022/01/19 11:02:25;;;;;;;13.25;7.75;;;7.00;92.20;;;;;;5034452;28;20049;-47
2022/01/19 11:04:52;;;;;;;13.65;8.38;;;7.10;92.00;;;;;;5034134;28;20062;-43
2022/01/19 11:07:19;;;;;;;13.38;7.50;;;7.10;91.70;;;;;;5039282;28;20045;-49
2022/01/19 11:09:56;;;;;;;13.10;7.82;;;7.10;91.70;;;;;;5034093;28;20095;-47
2022/01/19 11:12:25;;;;;;;14.50;8.00;;;7.20;91.70;;;;;;5034297;28;20066;-45
2022/01/19 11:14:52;;;;;;;14.57;7.90;;;7.30;91.70;;;;;;5034153;28;20033;-46
2022/01/19 11:17:34;;;;;;;14.93;8.27;;;7.30;91.80;;;;;;5034484;28;20100;-46
2022/01/19 11:20:01;;;;;;;15.07;8.40;;;7.40;91.50;;;;;;5034057;28;20045;-53
2022/01/19 11:22:28;;;;;;;17.55;8.50;;;7.40;91.40;;;;;;5034276;28;20049;-50
2022/01/19 11:24:55;;;;;;;16.70;8.23;;;7.40;91.50;;;;;;5033974;28;20042;-46
2022/01/19 11:27:23;;;;;;;14.65;7.85;;;7.40;91.70;;;;;;5031604;28;20489;-45
2022/01/19 11:29:50;;;;;;;16.23;8.07;;;7.40;91.80;;;;;;5034005;28;20033;-48
2022/01/19 11:32:16;;;;;;;17.45;7.90;;;7.40;91.90;;;;;;5033987;28;20562;-48
2022/01/19 11:34:46;;;;;;;16.15;8.07;;;7.40;92.00;;;;;;5033656;28;20087;-49
2022/01/19 11:37:13;;;;;;;13.73;7.97;;;7.50;92.10;;;;;;5035028;28;20504;-48
2022/01/19 11:39:40;;;;;;;18.33;9.13;;;7.50;92.10;;;;;;5032444;28;20397;-48
2022/01/19 11:42:07;;;;;;;14.90;7.68;;;7.70;91.80;;;;;;5033717;28;20080;-49
2022/01/19 11:44:35;;;;;;;16.75;8.50;;;7.90;91.40;;;;;;5033457;28;20041;-48
2022/01/19 11:47:02;;;;;;;15.13;8.20;;;8.00;91.40;;;;;;5033619;28;20504;-48
2022/01/19 11:49:29;;;;;;;12.40;7.47;;;8.10;91.40;;;;;;5033445;28;20129;-48
2022/01/19 11:51:57;;;;;;;18.40;7.60;;;8.20;91.30;;;;;;5032212;28;20464;-49
2022/01/19 11:54:23;;;;;;;14.68;7.78;;;8.10;91.00;;;;;;5033551;28;20552;-49
2022/01/19 11:56:50;;;;;;;11.27;7.72;;;8.10;91.30;;;;;;5033292;28;20037;-46
2022/01/19 11:59:17;;;;;;;16.50;7.63;;;8.20;91.30;;;;;;5028860;28;20096;-47
2022/01/19 12:01:44;;;;;;;13.35;7.30;;;8.30;91.30;;;;;;5031001;28;20041;-46
2022/01/19 12:04:12;;;;;;;15.82;7.47;;;8.40;91.10;;;;;;5033228;28;20124;-51
2022/01/19 12:06:39;;;;;;;14.68;7.43;;;8.50;91.00;;;;;;5033476;28;20046;-47
2022/01/19 12:09:08;;;;;;;10.95;6.47;;;8.50;91.00;;;;;;5035856;28;20440;-46
2022/01/19 12:11:37;;;;;;;11.75;7.00;;;8.60;91.20;;;;;;5031779;28;20497;-49
2022/01/19 12:14:33;;;;;;;14.25;7.15;;;8.60;91.20;;;;;;5033149;28;20041;-46
2022/01/19 12:17:28;;;;;;;11.98;6.88;;;8.70;91.00;;;;;;5032879;28;20478;-48
2022/01/19 12:19:48;;;;;;;13.35;6.55;;;8.70;91.30;;;;;;5033539;28;20057;-47
2022/01/19 12:22:15;;;;;;;11.73;6.65;;;8.70;91.40;;;;;;5033131;28;20049;-49
2022/01/19 12:24:43;;;;;;;12.93;6.15;;;8.80;91.30;;;;;;5032885;28;20096;-49
2022/01/19 12:27:09;;;;;;;9.93;6.13;;;8.80;91.40;;;;;;5032607;28;20046;-50
2022/01/19 12:29:36;;;;;;;10.40;5.75;;;8.80;91.40;;;;;;5031229;28;20049;-47
2022/01/19 12:32:03;;;;;;;10.70;6.70;;;8.80;91.40;;;;;;5031240;28;20045;-46
2022/01/19 12:34:30;;;;;;;11.15;6.13;;;8.80;91.60;;;;;;5032511;28;20041;-48
2022/01/19 12:36:58;;;;;;;11.88;5.82;;;8.90;91.50;;;;;;5035773;28;20037;-51
2022/01/19 12:39:24;;;;;;;9.73;6.00;;;8.90;91.70;;;;;;5034873;28;20135;-48
2022/01/19 12:41:51;;;;;;;11.35;6.22;;;8.90;91.60;;;;;;5032494;28;20048;-48
2022/01/19 12:44:18;;;;;;;12.60;7.03;;;8.90;91.70;;;;;;5032882;28;20461;-48
2022/01/19 12:46:49;;;;;;;9.25;6.03;;;8.90;91.60;;;;;;5032528;28;20038;-49
2022/01/19 12:49:16;;;;;;;10.98;6.60;;;8.80;91.70;;;;;;5032620;28;20037;-47
2022/01/19 12:51:43;;;;;;;11.88;6.05;;;8.80;91.90;;;;;;5032309;28;20042;-50
2022/01/19 12:54:12;;;;;;;11.13;5.70;;;8.80;91.80;;;;;;5032720;28;20444;-45
2022/01/19 12:56:49;;;;;;;10.57;6.97;;;8.80;92.00;;;;;;5032407;28;20049;-46
2022/01/19 12:59:16;;;;;;;11.25;6.00;;;8.80;91.80;;;;;;5032274;28;20103;-53
2022/01/19 13:01:43;;;;;;;11.48;6.20;;;8.80;92.10;;;;;;5032291;28;20037;-49
2022/01/19 13:04:10;;;;;;;10.95;6.63;;;8.80;92.20;;;;;;5032272;28;20091;-46
2022/01/19 13:06:37;;;;;;;11.30;6.35;;;8.80;92.10;;;;;;5032398;28;20485;-48
2022/01/19 13:09:07;;;;;;;11.63;6.60;;;8.80;92.30;;;;;;5033486;28;20477;-51
2022/01/19 13:11:41;;;;;;;9.07;6.30;;;8.80;92.20;;;;;;5032372;28;20128;-49
2022/01/19 13:14:08;;;;;;;10.70;6.10;;;8.80;92.20;;;;;;5011524;28;20092;-45
2022/01/19 13:16:34;;;;;;;15.00;6.45;;;8.70;92.20;;;;;;5032366;28;20099;-46
2022/01/19 13:19:07;;;;;;;12.55;6.60;;;8.80;92.30;;;;;;5031478;28;20559;-48
2022/01/19 13:21:35;;;;;;;12.13;6.30;;;8.80;92.40;;;;;;5032293;28;20448;-45
2022/01/19 13:24:04;;;;;;;10.43;5.65;;;8.80;92.40;;;;;;5032222;28;20038;-48
2022/01/19 13:26:31;;;;;;;9.70;5.90;;;8.80;92.20;;;;;;5032143;28;20037;-48
2022/01/19 13:28:58;;;;;;;14.70;6.65;;;8.80;92.30;;;;;;5032133;28;20052;-49
2022/01/19 13:31:24;;;;;;;14.52;6.50;;;8.80;92.40;;;;;;5031742;28;20046;-47
2022/01/19 13:33:51;;;;;;;10.00;6.18;;;8.70;93.00;;;;;;5031855;28;20041;-44
2022/01/19 13:36:18;;;;;;;13.80;7.00;;;8.60;93.90;;;;;;5030772;28;20041;-47
2022/01/19 13:38:45;;;;;;;13.68;7.18;;;8.50;94.40;;;;;;5036465;28;20042;-47
2022/01/19 13:41:12;;;;;;;15.73;6.72;;;8.50;94.80;;;;;;5032144;28;20116;-46
2022/01/19 13:43:38;;;;;;;10.63;6.05;;;8.40;95.00;;;;;;5025723;28;20046;-50
2022/01/19 13:46:18;;;;;;;9.35;6.30;;;8.30;95.00;;;;;;5031935;28;20323;-52
2022/01/19 13:48:47;;;;;;;9.90;6.07;;;8.30;95.30;;;;;;5013086;28;20045;-49
2022/01/19 13:51:14;;;;;;;11.10;6.10;;;8.20;95.40;;;;;;5033422;28;20045;-48
2022/01/19 13:53:41;;;;;;;10.65;7.03;;;8.20;95.90;;;;;;5036515;28;20041;-48
2022/01/19 13:56:09;;;;;;;11.57;6.57;;;8.10;96.20;;;;;;5040429;28;20103;-47
2022/01/19 13:58:36;;;;;;;12.02;7.60;;;8.10;96.40;;;;;;5035949;28;20513;-50
2022/01/19 14:01:04;;;;;;;12.18;7.95;;;8.10;96.60;;;;;;5034771;28;20041;-48
2022/01/19 14:03:31;;;;;;;14.23;9.20;;;8.00;96.60;;;;;;5035787;28;20045;-49
2022/01/19 14:05:58;;;;;;;12.05;8.60;;;8.00;96.80;;;;;;5037523;28;20033;-48
2022/01/19 14:08:25;;;;;;;13.95;11.18;;;8.00;96.80;;;;;;5035953;28;20116;-49
2022/01/19 14:10:52;;;;;;;11.82;8.57;;;8.00;96.60;;;;;;5033867;28;20064;-48
2022/01/19 14:13:18;;;;;;;12.40;8.45;;;8.00;96.60;;;;;;5035944;28;20107;-48
2022/01/19 14:15:45;;;;;;;11.40;7.68;;;8.00;96.70;;;;;;5035815;28;20461;-50
2022/01/19 14:18:12;;;;;;;13.20;7.85;;;8.10;96.50;;;;;;5036013;28;20505;-55
2022/01/19 14:20:40;;;;;;;14.98;7.97;;;8.10;96.60;;;;;;5035725;28;20124;-49
2022/01/19 14:23:15;;;;;;;12.73;7.90;;;8.10;96.50;;;;;;5035150;28;20118;-47
2022/01/19 14:25:43;;;;;;;13.90;8.07;;;8.10;96.30;;;;;;5035607;28;20140;-50
2022/01/19 14:28:10;;;;;;;12.13;8.35;;;8.10;96.30;;;;;;5034503;28;20041;-49
2022/01/19 14:30:36;;;;;;;12.18;8.68;;;8.20;96.30;;;;;;5040052;28;20420;-50
2022/01/19 14:33:03;;;;;;;12.95;8.27;;;8.20;96.20;;;;;;5034787;28;20045;-53
2022/01/19 14:35:30;;;;;;;13.30;9.00;;;8.20;96.00;;;;;;5039834;28;20396;-47
2022/01/19 14:37:57;;;;;;;13.95;8.55;;;8.20;96.00;;;;;;5035269;28;20050;-46
2022/01/19 14:40:24;;;;;;;13.93;8.00;;;8.20;95.90;;;;;;5037876;28;20141;-54
2022/01/19 14:42:50;;;;;;;13.35;8.68;;;8.30;96.00;;;;;;5035255;28;20049;-50
2022/01/19 14:45:24;;;;;;;15.07;9.00;;;8.30;95.70;;;;;;5035643;28;20055;-47
2022/01/19 14:47:54;;;;;;;11.85;8.10;;;8.30;95.50;;;;;;5035149;28;20042;-50
2022/01/19 14:50:20;;;;;;;16.23;8.75;;;8.20;95.40;;;;;;5038806;28;20435;-48
2022/01/19 14:52:49;;;;;;;43.67;28.25;;;8.20;95.20;;;;;;5034884;28;20467;-50
2022/01/19 14:55:16;;;;;;;20.67;13.27;;;8.20;95.30;;;;;;5033160;28;20515;-50
2022/01/19 14:57:43;;;;;;;28.13;17.88;;;8.10;95.10;;;;;;5039175;28;20042;-48
2022/01/19 15:00:10;;;;;;;34.90;20.67;;;8.10;94.80;;;;;;5033503;28;20404;-48
2022/01/19 15:02:36;;;;;;;23.02;13.32;;;8.00;94.30;;;;;;5034898;28;20049;-49
2022/01/19 15:05:03;;;;;;;20.05;11.65;;;8.10;93.70;;;;;;5039136;28;20045;-49
2022/01/19 15:07:30;;;;;;;17.17;6.72;;;8.00;93.50;;;;;;5034805;28;20064;-48
2022/01/19 15:09:57;;;;;;;21.55;6.38;;;8.00;92.30;;;;;;5034711;28;20565;-47
2022/01/19 15:12:24;;;;;;;12.75;5.45;;;8.00;92.20;;;;;;5036995;28;20121;-48
2022/01/19 15:14:50;;;;;;;13.75;6.05;;;8.10;91.50;;;;;;5034657;28;20045;-47
2022/01/19 15:17:17;;;;;;;12.40;6.95;;;8.10;92.10;;;;;;5034502;28;20460;-50
2022/01/19 15:19:44;;;;;;;19.05;8.05;;;8.10;91.20;;;;;;5036655;28;20047;-47
2022/01/19 15:22:12;;;;;;;16.83;8.35;;;8.10;90.70;;;;;;5034280;28;20045;-49
2022/01/19 15:24:39;;;;;;;12.82;5.25;;;8.10;90.70;;;;;;5033521;28;20034;-46
2022/01/19 15:27:06;;;;;;;14.35;4.93;;;8.30;90.10;;;;;;5032952;28;20045;-47
2022/01/19 15:29:33;;;;;;;13.63;4.53;;;8.50;89.30;;;;;;5034206;28;20493;-47
2022/01/19 15:32:00;;;;;;;9.35;4.00;;;8.60;88.30;;;;;;5029490;28;20069;-47
2022/01/19 15:34:27;;;;;;;11.88;3.72;;;8.60;87.10;;;;;;5026562;28;20053;-49
2022/01/19 15:36:54;;;;;;;11.10;4.40;;;8.60;86.10;;;;;;5037148;28;20041;-46
2022/01/19 15:39:20;;;;;;;10.45;4.38;;;8.50;85.80;;;;;;5033713;28;20571;-48
2022/01/19 15:41:47;;;;;;;10.45;3.63;;;8.50;86.20;;;;;;5033839;28;20029;-46
2022/01/19 15:44:14;;;;;;;12.18;3.30;;;8.50;86.20;;;;;;5039249;28;20042;-48
2022/01/19 15:46:41;;;;;;;11.75;3.55;;;8.50;85.20;;;;;;5033815;28;20043;-49
2022/01/19 15:49:08;;;;;;;13.52;4.22;;;8.50;85.70;;;;;;5034122;28;20037;-53
2022/01/19 15:51:37;;;;;;;10.55;3.70;;;8.50;86.70;;;;;;5034097;28;20041;-51
2022/01/19 15:54:04;;;;;;;10.48;3.72;;;8.50;87.10;;;;;;5032540;28;20045;-53
2022/01/19 15:56:31;;;;;;;14.98;5.63;;;8.50;85.90;;;;;;5034455;28;20370;-53
2022/01/19 15:58:58;;;;;;;13.80;5.40;;;8.50;85.40;;;;;;5033744;28;20038;-54
2022/01/19 16:01:25;;;;;;;12.05;4.20;;;8.50;85.90;;;;;;5033697;28;20064;-52
2022/01/19 16:03:52;;;;;;;12.85;4.35;;;8.50;84.20;;;;;;5033384;28;20077;-52
2022/01/19 16:06:19;;;;;;;16.85;4.00;;;8.50;83.20;;;;;;5035802;28;20463;-52
2022/01/19 16:08:46;;;;;;;13.15;3.78;;;8.50;80.30;;;;;;5033499;28;20046;-53
2022/01/19 16:11:13;;;;;;;11.10;3.67;;;8.50;78.30;;;;;;5033586;28;20072;-52
2022/01/19 16:13:40;;;;;;;18.48;4.30;;;8.50;78.60;;;;;;5033087;28;20041;-52
2022/01/19 16:16:06;;;;;;;13.80;3.70;;;8.50;77.00;;;;;;5034516;28;20049;-51
2022/01/19 16:18:33;;;;;;;12.88;2.90;;;8.50;76.40;;;;;;5033431;28;20413;-49
2022/01/19 16:21:20;;;;;;;9.55;2.28;;;8.50;77.00;;;;;;5033135;28;20056;-48
2022/01/19 16:26:34;;;;;;;9.27;2.95;;;8.40;76.90;;;;;;5027146;28;20061;-51
2022/01/19 16:29:01;;;;;;;13.25;3.53;;;8.40;75.80;;;;;;5028184;28;20068;-51
2022/01/19 16:31:27;;;;;;;14.68;2.85;;;8.40;75.80;;;;;;5029723;28;20068;-53
2022/01/19 16:33:55;;;;;;;7.70;2.20;;;8.40;76.10;;;;;;5030181;28;20562;-50
2022/01/19 16:36:22;;;;;;;10.50;2.08;;;8.40;76.30;;;;;;5027665;28;20148;-50
2022/01/19 16:38:49;;;;;;;11.15;2.75;;;8.40;75.70;;;;;;5026376;28;20042;-47
2022/01/19 16:41:15;;;;;;;11.25;2.65;;;8.40;76.10;;;;;;5029775;28;20120;-48
2022/01/19 16:43:45;;;;;;;13.18;2.50;;;8.40;76.00;;;;;;5036229;28;20045;-47
2022/01/19 16:46:33;;;;;;;12.07;2.67;;;8.40;75.90;;;;;;5032068;28;20045;-49
2022/01/19 16:49:05;;;;;;;9.45;2.20;;;8.30;76.90;;;;;;5032897;28;20100;-50
2022/01/19 16:51:32;;;;;;;12.80;2.40;;;8.30;77.00;;;;;;5032476;28;20400;-48
2022/01/19 16:53:58;;;;;;;12.40;2.83;;;8.30;76.40;;;;;;5032877;28;20044;-50
2022/01/19 16:56:25;;;;;;;9.75;2.28;;;8.30;77.80;;;;;;5035183;28;20065;-48
2022/01/19 16:58:52;;;;;;;13.68;2.78;;;8.30;76.40;;;;;;5032829;28;20108;-48
2022/01/19 17:01:19;;;;;;;16.13;3.30;;;8.30;75.90;;;;;;5038563;28;20038;-48
2022/01/19 17:03:46;;;;;;;11.55;2.60;;;8.30;76.40;;;;;;5032620;28;20512;-51
2022/01/19 17:06:13;;;;;;;12.63;2.95;;;8.30;76.20;;;;;;5034312;28;20433;-50
2022/01/19 17:08:41;;;;;;;10.80;2.70;;;8.30;76.50;;;;;;5032775;28;20038;-48
2022/01/19 17:11:09;;;;;;;11.68;2.92;;;8.30;76.60;;;;;;5033311;28;20419;-51
2022/01/19 17:16:44;;;;;;;18.95;4.18;;;8.30;77.20;;;;;;5032516;28;20393;-48
2022/01/19 17:18:56;;;;;;;11.85;2.90;;;8.30;77.20;;;;;;5028232;28;20060;-48
2022/01/19 17:21:23;;;;;;;12.65;2.58;;;8.30;77.60;;;;;;5032575;28;20037;-46
2022/01/19 17:23:52;;;;;;;13.07;2.70;;;8.30;77.70;;;;;;5035627;28;20037;-49
2022/01/19 17:26:19;;;;;;;10.35;2.67;;;8.30;77.10;;;;;;5034438;28;20045;-48
2022/01/19 17:28:45;;;;;;;12.07;3.55;;;8.20;77.80;;;;;;5036690;28;20051;-53
2022/01/19 17:31:12;;;;;;;13.15;3.40;;;8.20;77.80;;;;;;5041058;28;20140;-48
2022/01/19 17:33:39;;;;;;;14.90;3.88;;;8.20;77.70;;;;;;5035094;28;20483;-47
2022/01/19 17:36:06;;;;;;;12.75;3.50;;;8.10;77.50;;;;;;5036322;28;20037;-49
2022/01/19 17:38:33;;;;;;;12.27;3.53;;;8.10;78.40;;;;;;5036370;28;20061;-48
2022/01/19 17:41:00;;;;;;;11.95;2.88;;;8.00;78.50;;;;;;5035385;28;20038;-52
2022/01/19 17:43:27;;;;;;;14.68;3.33;;;7.90;78.70;;;;;;5036272;28;20034;-51
2022/01/19 17:46:11;;;;;;;10.23;3.28;;;7.90;79.10;;;;;;5040225;28;20047;-49
2022/01/19 17:48:59;;;;;;;10.38;3.00;;;7.80;79.30;;;;;;5032643;28;20069;-51
2022/01/19 17:53:52;;;;;;;11.32;2.72;;;7.70;79.90;;;;;;5036023;28;20056;-46
2022/01/19 17:56:19;;;;;;;12.50;2.50;;;7.60;79.80;;;;;;5035858;28;20124;-49
2022/01/19 17:58:48;;;;;;;13.35;2.95;;;7.60;80.00;;;;;;5035175;28;20088;-49
2022/01/19 18:01:15;;;;;;;14.73;3.95;;;7.60;79.70;;;;;;5035850;28;20481;-46
2022/01/19 18:03:42;;;;;;;12.57;2.88;;;7.50;79.90;;;;;;5035815;28;20041;-47
2022/01/19 18:06:09;;;;;;;10.10;3.20;;;7.50;81.10;;;;;;5035521;28;20374;-48
2022/01/19 18:08:36;;;;;;;15.10;3.80;;;7.40;80.40;;;;;;5035839;28;20038;-48
2022/01/19 18:11:02;;;;;;;15.27;3.53;;;7.40;81.40;;;;;;5036248;28;20489;-52
2022/01/19 18:13:30;;;;;;;12.80;4.30;;;7.30;81.20;;;;;;5035765;28;20044;-49
2022/01/19 18:15:57;;;;;;;14.50;3.70;;;7.30;81.40;;;;;;5035437;28;20041;-47
2022/01/19 18:18:23;;;;;;;15.27;3.55;;;7.20;81.80;;;;;;5035473;28;20045;-52
2022/01/19 18:20:50;;;;;;;12.02;3.30;;;7.20;81.60;;;;;;5036848;28;20116;-50
2022/01/19 18:23:17;;;;;;;14.38;3.53;;;7.20;81.70;;;;;;5038668;28;20120;-46
2022/01/19 18:25:44;;;;;;;16.30;4.50;;;7.20;81.50;;;;;;5036710;28;20037;-49
2022/01/19 18:28:11;;;;;;;17.73;4.20;;;7.20;82.10;;;;;;5038829;28;20047;-47
2022/01/19 18:30:38;;;;;;;15.60;3.78;;;7.10;81.90;;;;;;5035077;28;20080;-49
2022/01/19 18:33:05;;;;;;;14.80;3.33;;;7.10;82.90;;;;;;5038944;28;20045;-48
2022/01/19 18:35:31;;;;;;;13.35;3.38;;;7.00;83.00;;;;;;5034130;28;20551;-47
2022/01/19 18:37:58;;;;;;;16.00;4.30;;;7.00;83.80;;;;;;5036674;28;20034;-47
2022/01/19 18:40:27;;;;;;;17.48;6.07;;;7.00;83.00;;;;;;5035313;28;20042;-50
2022/01/19 18:42:54;;;;;;;24.27;5.10;;;6.90;83.40;;;;;;5039386;28;20045;-51
2022/01/19 18:45:21;;;;;;;19.17;5.88;;;6.90;83.50;;;;;;5035392;28;20037;-49
2022/01/19 18:47:49;;;;;;;19.42;5.38;;;6.90;83.80;;;;;;5037683;28;20056;-51
2022/01/19 18:50:17;;;;;;;15.13;4.95;;;6.90;84.10;;;;;;5035030;28;20452;-50
2022/01/19 18:52:44;;;;;;;13.90;4.93;;;6.80;84.30;;;;;;5038566;28;20043;-48
2022/01/19 18:55:10;;;;;;;18.65;4.97;;;6.80;84.40;;;;;;5035094;28;20047;-49
2022/01/19 18:57:37;;;;;;;15.25;4.40;;;6.70;84.40;;;;;;5034754;28;20076;-49
2022/01/19 19:00:04;;;;;;;21.63;5.63;;;6.70;84.70;;;;;;5033980;28;20037;-47
2022/01/19 19:02:31;;;;;;;15.30;3.85;;;6.70;84.80;;;;;;5034805;28;20404;-49
2022/01/19 19:04:58;;;;;;;12.68;4.75;;;6.60;85.60;;;;;;5033528;28;20456;-49
2022/01/19 19:07:25;;;;;;;15.25;4.30;;;6.60;85.80;;;;;;5034865;28;20393;-46
2022/01/19 19:10:22;;;;;;;17.90;4.75;;;6.60;85.90;;;;;;5034817;28;20038;-48
2022/01/19 19:12:47;;;;;;;16.13;4.43;;;6.50;85.70;;;;;;5035849;28;20064;-47
2022/01/19 19:15:16;;;;;;;18.33;5.50;;;6.50;85.90;;;;;;5034626;28;20049;-50
2022/01/19 19:17:43;;;;;;;14.40;4.70;;;6.50;86.30;;;;;;5034610;28;20488;-47
2022/01/19 19:20:10;;;;;;;12.95;4.50;;;6.50;85.90;;;;;;5034410;28;20037;-48
2022/01/19 19:22:37;;;;;;;18.85;5.57;;;6.40;86.30;;;;;;5034450;28;20485;-46
2022/01/19 19:25:04;;;;;;;29.02;6.13;;;6.40;87.10;;;;;;5034327;28;20469;-47
2022/01/19 19:27:31;;;;;;;18.73;5.80;;;6.30;87.20;;;;;;5034340;28;20489;-46
2022/01/19 19:29:58;;;;;;;15.85;4.90;;;6.20;87.50;;;;;;5034215;28;20064;-47
2022/01/19 19:32:27;;;;;;;16.30;5.18;;;6.20;88.20;;;;;;5034271;28;20033;-48
2022/01/19 19:34:54;;;;;;;16.83;5.28;;;6.10;88.00;;;;;;5034367;28;20044;-50
2022/01/19 19:37:20;;;;;;;14.75;4.28;;;6.10;88.20;;;;;;5035636;28;20045;-50
2022/01/19 19:39:47;;;;;;;20.05;5.55;;;6.00;88.30;;;;;;5034048;28;20548;-47
2022/01/19 19:42:14;;;;;;;16.60;6.78;;;6.00;88.50;;;;;;5033983;28;20124;-48
2022/01/19 19:44:41;;;;;;;23.42;7.05;;;6.00;88.60;;;;;;5033752;28;20052;-48
2022/01/19 19:47:08;;;;;;;21.65;6.88;;;6.00;88.50;;;;;;5033831;28;20037;-51
2022/01/19 19:49:35;;;;;;;16.27;5.38;;;6.00;88.40;;;;;;5031627;28;20409;-49
2022/01/19 19:52:02;;;;;;;21.85;6.22;;;6.00;88.30;;;;;;5036891;28;20049;-50
2022/01/19 19:54:35;;;;;;;21.45;5.82;;;6.00;87.80;;;;;;5033890;28;20038;-49
2022/01/19 19:57:03;;;;;;;16.20;5.28;;;6.00;87.80;;;;;;5033555;28;20048;-50
2022/01/19 19:59:29;;;;;;;20.60;4.75;;;6.10;87.50;;;;;;5033731;28;20120;-51
2022/01/19 20:01:57;;;;;;;17.42;5.00;;;6.10;87.10;;;;;;5033762;28;20068;-51
2022/01/19 20:04:24;;;;;;;14.25;4.55;;;6.10;87.10;;;;;;5033808;28;20096;-49
2022/01/19 20:06:51;;;;;;;19.27;5.32;;;6.10;87.20;;;;;;5035213;28;20057;-49
2022/01/19 20:09:18;;;;;;;16.15;4.35;;;6.10;87.10;;;;;;5033596;28;20056;-51
2022/01/19 20:11:46;;;;;;;15.18;4.40;;;6.10;86.90;;;;;;5033834;28;20045;-52
2022/01/19 20:14:13;;;;;;;18.63;4.40;;;6.10;87.20;;;;;;5033571;28;20116;-51
2022/01/19 20:16:43;;;;;;;13.27;4.22;;;6.10;87.50;;;;;;5037516;28;20095;-51
2022/01/19 20:19:13;;;;;;;22.27;4.35;;;6.00;87.20;;;;;;5033454;28;20037;-49
2022/01/19 20:21:42;;;;;;;14.25;4.10;;;6.00;87.40;;;;;;5032640;28;20060;-52
2022/01/19 20:24:15;;;;;;;16.75;4.43;;;6.00;87.80;;;;;;5033302;28;20037;-49
2022/01/19 20:26:42;;;;;;;17.83;4.35;;;5.90;87.90;;;;;;5033131;28;20095;-51
2022/01/19 20:29:09;;;;;;;19.42;4.80;;;5.90;87.70;;;;;;5033087;28;20046;-50
2022/01/19 20:31:35;;;;;;;16.42;4.18;;;5.90;87.60;;;;;;5033334;28;20053;-50
2022/01/19 20:34:02;;;;;;;17.00;4.50;;;5.90;87.50;;;;;;5033074;28;20116;-47
2022/01/19 20:36:29;;;;;;;15.90;4.32;;;5.90;87.80;;;;;;5032885;28;20049;-49
2022/01/19 20:38:56;;;;;;;17.38;4.20;;;5.90;87.80;;;;;;5032896;28;20046;-49
2022/01/19 20:41:23;;;;;;;20.38;4.55;;;5.90;87.90;;;;;;5031642;28;20049;-45
2022/01/19 20:43:50;;;;;;;14.80;4.07;;;5.90;87.90;;;;;;5032042;28;20110;-46
2022/01/19 20:46:17;;;;;;;15.77;4.45;;;5.80;88.20;;;;;;5031610;28;20064;-50
2022/01/19 20:48:44;;;;;;;21.08;4.35;;;5.80;88.40;;;;;;5033024;28;20110;-53
2022/01/19 20:51:11;;;;;;;18.38;4.28;;;5.80;88.30;;;;;;5033036;28;20045;-50
2022/01/19 20:53:37;;;;;;;17.52;6.03;;;5.70;88.70;;;;;;5031719;28;20072;-52
2022/01/19 20:56:04;;;;;;;21.48;7.47;;;5.70;88.70;;;;;;5031821;28;20049;-50
2022/01/19 20:58:31;;;;;;;21.40;6.43;;;5.60;88.80;;;;;;5032806;28;20128;-53
2022/01/19 21:00:58;;;;;;;17.15;4.55;;;5.60;89.00;;;;;;5031822;28;20148;-48
2022/01/19 21:03:25;;;;;;;15.32;5.22;;;5.60;88.80;;;;;;5037498;28;20430;-53
2022/01/19 21:05:52;;;;;;;20.67;5.88;;;5.60;89.00;;;;;;5032645;28;20101;-51
2022/01/19 21:08:19;;;;;;;17.92;4.68;;;5.60;89.20;;;;;;5034575;28;20049;-50
2022/01/19 21:10:45;;;;;;;14.80;4.07;;;5.60;89.00;;;;;;5032572;28;20053;-48
2022/01/19 21:13:12;;;;;;;20.45;5.40;;;5.50;89.00;;;;;;5033667;28;20187;-48
2022/01/19 21:15:39;;;;;;;21.40;5.78;;;5.50;89.30;;;;;;5032664;28;20045;-48
2022/01/19 21:18:06;;;;;;;24.77;7.22;;;5.50;89.40;;;;;;5033745;28;20034;-49
2022/01/19 21:20:33;;;;;;;23.05;8.50;;;5.50;89.60;;;;;;5031307;28;20033;-49
2022/01/19 21:23:00;;;;;;;18.55;5.90;;;5.50;90.00;;;;;;5032594;28;20060;-49
2022/01/19 21:25:26;;;;;;;21.80;7.03;;;5.40;90.00;;;;;;5032665;28;20041;-51
2022/01/19 21:27:53;;;;;;;17.00;5.10;;;5.40;90.10;;;;;;5032100;28;20034;-48
2022/01/19 21:30:21;;;;;;;20.60;5.97;;;5.40;90.10;;;;;;5031084;28;20042;-48
2022/01/19 21:32:48;;;;;;;24.00;10.82;;;5.30;90.20;;;;;;5032464;28;20584;-50
2022/01/19 21:35:16;;;;;;;40.95;20.38;;;5.30;90.30;;;;;;5032282;28;20045;-50
2022/01/19 21:37:43;;;;;;;29.02;12.65;;;5.30;90.30;;;;;;5032039;28;20560;-50
